WXM80 ListenWXM80 Stop

You find our weather info also at:

UK Metoffice

WeatherCloud

Weather Underground

Northeastern Weather Network

AWEKAS

Citizen Weather Observer Program (CWOP)

HAMweather, WeatherForYou, PWS Weather


Weather Underground History page Text

Daily Summary for January 13, 2018 Units:  Metric    English   Both
« Previous Day
Next Day »
Daily Weekly Monthly Yearly Custom
  High: Low: Average:
Temperature: -17.8 °C -6.2 °C 3.5 °C
Dew Point: -17.8 °C -13.6 °C 0.5 °C
Humidity: Humidity % 56 % 80 %
Wind Speed: 0 km/h 3.7 km/h 11.4 km/h
Wind Gust: 0 km/h - -
Wind:- - WSW
Pressure: 0 hPa 985 hPa -
Precipitation: 3.56 mm    
Historical Graphs
 
 
Tabular Data for January 13, 2018
Time Temperature Dew Point Pressure Wind Wind Speed Wind Gust Humidity Rainfall Rate (Hourly)
-17.8 °C -17.8 °C 0 hPa Calm     Humidity % 0 mm
00:04 15.3 °C 15 °C 992.1 hPa South 15.3 km/h 25.9 km/h 98 % 0.25 mm
00:10 15.2 °C 14.9 °C 992.1 hPa South 14.5 km/h 25.9 km/h 98 % 0.25 mm
00:18 15.1 °C 14.8 °C 992.1 hPa WSW 10.8 km/h 31.5 km/h 98 % 0.51 mm
00:30 14.8 °C 14.5 °C 991.8 hPa South 13.7 km/h 22.2 km/h 98 % 0.76 mm
00:36 14.7 °C 14.3 °C 991.4 hPa SSW 12.9 km/h 32.2 km/h 98 % 0 mm
00:49 14.6 °C 14.2 °C 991.4 hPa South 11.6 km/h 20.4 km/h 98 % 0.76 mm
01:00 14.7 °C 14.3 °C 991.8 hPa South 6.9 km/h 17.7 km/h 98 % 0.51 mm
01:14 14.7 °C 14.4 °C 991.8 hPa SSE 14.3 km/h 25.9 km/h 98 % 0.51 mm
01:21 14.8 °C 14.4 °C 991.1 hPa SSW 11.7 km/h 20.4 km/h 98 % 0.25 mm
01:32 14.7 °C 14.4 °C 991.8 hPa SSW 11.6 km/h 22.2 km/h 98 % 0 mm
01:52 14.3 °C 14 °C 990.7 hPa South 9.8 km/h 16.7 km/h 98 % 0 mm
02:10 14.2 °C 13.8 °C 990.4 hPa SSW 10.8 km/h 25.9 km/h 98 % 0 mm
02:26 14.2 °C 13.8 °C 989.7 hPa SW 9.5 km/h 16.7 km/h 98 % 0 mm
02:37 14.2 °C 13.9 °C 989.4 hPa South 10.6 km/h 18.5 km/h 98 % 0 mm
02:42 14.2 °C 13.9 °C 989.1 hPa West 9 km/h 20.4 km/h 98 % 0 mm
02:48 14.1 °C 13.8 °C 989.1 hPa South 17.5 km/h 31.5 km/h 98 % 0 mm
02:56 14 °C 13.7 °C 989.1 hPa South 12.2 km/h 25.9 km/h 98 % 0 mm
03:05 13.9 °C 13.6 °C 988.7 hPa SSW 10.3 km/h 18.5 km/h 98 % 0 mm
03:10 13.9 °C 13.6 °C 988.7 hPa South 9.7 km/h 18.5 km/h 98 % 0 mm
03:19 13.8 °C 13.5 °C 988.4 hPa SSW 8 km/h 18.5 km/h 98 % 0 mm
03:24 13.7 °C 13.3 °C 988.7 hPa South 12.1 km/h 22.2 km/h 98 % 0.25 mm
03:46 13.1 °C 12.8 °C 987.7 hPa South 13.4 km/h 20.4 km/h 98 % 2.54 mm
03:51 13.1 °C 12.7 °C 987.4 hPa SSW 12.4 km/h 22.2 km/h 98 % 2.54 mm
03:58 13.1 °C 12.7 °C 987 hPa SSW 13.4 km/h 30.6 km/h 98 % 2.79 mm
04:04 13.2 °C 12.9 °C 985.3 hPa South 14.6 km/h 27.8 km/h 98 % 3.05 mm
04:10 13.5 °C 13.2 °C 985 hPa SSE 6.4 km/h 17.7 km/h 98 % 3.05 mm
04:18 13.8 °C 13.5 °C 985 hPa South 12.2 km/h 29.6 km/h 98 % 3.05 mm
04:27 13.8 °C 13.5 °C 985 hPa SSE 8.2 km/h 18.5 km/h 98 % 2.54 mm
04:37 14.2 °C 13.9 °C 985 hPa SSW 18.8 km/h 33.3 km/h 98 % 1.52 mm
04:42 14.3 °C 13.9 °C 985 hPa SSE 12.6 km/h 29 km/h 98 % 0.76 mm
04:47 14.3 °C 13.9 °C 985 hPa South 16.9 km/h 27.8 km/h 98 % 0.51 mm
04:56 14.1 °C 13.7 °C 985.3 hPa South 15.8 km/h 29.6 km/h 98 % 0.25 mm
05:07 13.7 °C 13.3 °C 985.7 hPa SSW 22.4 km/h 33.8 km/h 98 % 0 mm
05:22 13.1 °C 12.6 °C 986.3 hPa SSW 20.8 km/h 24.1 km/h 97 % 0 mm
05:31 12.7 °C 12.3 °C 986.3 hPa South 16.7 km/h 33.3 km/h 97 % 0 mm
05:42 12.3 °C 11.9 °C 986.7 hPa SSW 12.6 km/h 33.3 km/h 97 % 0 mm
05:54 12 °C 11.6 °C 987 hPa South 12.7 km/h 31.5 km/h 97 % 0 mm
05:59 11.9 °C 11.5 °C 987 hPa SSW 15 km/h 22.2 km/h 97 % 0 mm
06:20 11.5 °C 10.9 °C 987.7 hPa SSW 12.2 km/h 18.5 km/h 96 % 0 mm
06:30 11.4 °C 10.8 °C 988 hPa South 13.7 km/h 20.9 km/h 96 % 0 mm
06:36 11.3 °C 10.7 °C 987.7 hPa South 14.5 km/h 25.7 km/h 96 % 0 mm
06:42 11.2 °C 10.6 °C 988 hPa SSW 18.2 km/h 31.5 km/h 96 % 0 mm
07:01 11 °C 10.4 °C 988.4 hPa SSW 13.5 km/h 20.4 km/h 96 % 0 mm
07:10 11.1 °C 10.7 °C 989.7 hPa SW 12.1 km/h 18.5 km/h 97 % 0 mm
07:15 11.1 °C 10.6 °C 990.7 hPa WSW 22.2 km/h 51.8 km/h 97 % 0 mm
07:23 9.3 °C 7.9 °C 991.8 hPa WNW 25.6 km/h 35.2 km/h 91 % 0 mm
07:31 7.9 °C 6.4 °C 992.1 hPa South 14 km/h 25.9 km/h 90 % 0 mm
07:39 7.1 °C 5.6 °C 992.4 hPa SW 13.5 km/h 22.2 km/h 90 % 0 mm
07:48 6.2 °C 4.5 °C 993.5 hPa West 13 km/h 22.2 km/h 89 % 0 mm
07:53 5.9 °C 4.4 °C 994.1 hPa SW 12.6 km/h 24.1 km/h 90 % 0 mm
08:00 5.4 °C 3.9 °C 994.1 hPa WNW 7.9 km/h 13 km/h 90 % 0 mm
08:07 5.2 °C 3.9 °C 994.8 hPa WNW 6.1 km/h 18.5 km/h 91 % 0 mm
08:16 4.9 °C 3.6 °C 995.1 hPa NW 11.1 km/h 22.2 km/h 91 % 0 mm
08:21 4.8 °C 3.3 °C 995.5 hPa NW 7.9 km/h 16.7 km/h 90 % 0 mm
08:27 4.6 °C 3.1 °C 995.8 hPa SW 14.6 km/h 29.6 km/h 90 % 0 mm
08:33 4.4 °C 2.9 °C 996.2 hPa WNW 17.1 km/h 29 km/h 90 % 0 mm
08:38 4.2 °C 2.5 °C 996.2 hPa West 12.2 km/h 22.2 km/h 89 % 0 mm
08:44 3.8 °C 2 °C 996.5 hPa SSW 10 km/h 25.9 km/h 88 % 0 mm
08:55 2.9 °C 1 °C 996.8 hPa WNW 11.3 km/h 20.4 km/h 87 % 0 mm
09:04 2.6 °C 0.6 °C 997.2 hPa NNW 12.4 km/h 20.4 km/h 87 % 0 mm
09:10 2.2 °C 0.1 °C 997.9 hPa WSW 12.9 km/h 25.9 km/h 86 % 0 mm
09:20 1.7 °C -0.6 °C 998.5 hPa WNW 13.8 km/h 24.1 km/h 85 % 0 mm
09:25 1.4 °C -1 °C 998.9 hPa WSW 18.2 km/h 27.8 km/h 84 % 0 mm
09:31 1.2 °C -1.2 °C 998.9 hPa West 5.6 km/h 18.5 km/h 84 % 0 mm
09:39 1 °C -1.4 °C 999.2 hPa West 9.5 km/h 20.4 km/h 84 % 0 mm
09:57 0.6 °C -1.9 °C 1000.2 hPa SW 7.7 km/h 24.1 km/h 83 % 0 mm
10:06 0.5 °C -2.2 °C 1000.6 hPa WNW 12.1 km/h 25.7 km/h 82 % 0 mm
10:18 0.4 °C -2.4 °C 1000.9 hPa WSW 14.5 km/h 31.5 km/h 81 % 0 mm
10:35 0.7 °C -2.5 °C 1001.2 hPa WSW 13.8 km/h 27.8 km/h 79 % 0 mm
10:43 0.8 °C -2.6 °C 1001.6 hPa WSW 12.4 km/h 27.8 km/h 78 % 0 mm
10:54 0.7 °C -2.7 °C 1001.9 hPa West 13.8 km/h 20.9 km/h 78 % 0 mm
11:01 0.8 °C -2.4 °C 1001.9 hPa NW 12.9 km/h 30.6 km/h 79 % 0 mm
11:06 0.8 °C -2.2 °C 1001.9 hPa NW 9.5 km/h 18.5 km/h 80 % 0 mm
11:11 0.9 °C -1.9 °C 1001.9 hPa NNW 10.3 km/h 20.9 km/h 81 % 0 mm
11:16 1.1 °C -1.8 °C 1002.3 hPa NW 13 km/h 13 km/h 81 % 0 mm
11:22 1.1 °C -1.8 °C 1002.3 hPa NNW 12.1 km/h 20.4 km/h 81 % 0 mm
11:31 1.1 °C -1.9 °C 1002.6 hPa NW 11.7 km/h 18.5 km/h 80 % 0 mm
11:39 1.1 °C -2 °C 1002.6 hPa WNW 9.3 km/h 14.8 km/h 80 % 0 mm
11:50 1.1 °C -1.8 °C 1002.6 hPa NW 6.1 km/h 11.3 km/h 81 % 0 mm
11:59 1.1 °C -1.6 °C 1002.6 hPa NW 7.6 km/h 11.1 km/h 82 % 0 mm
12:05 1.1 °C -1.6 °C 1002.9 hPa NW 3.7 km/h 9.3 km/h 82 % 0 mm
12:18 1.2 °C -1.7 °C 1003.6 hPa North 8.7 km/h 13 km/h 81 % 0 mm
12:23 1.3 °C -1.8 °C 1003.6 hPa NW 7.2 km/h 14.8 km/h 80 % 0 mm
12:31 1.4 °C -1.8 °C 1003.3 hPa WNW 9.3 km/h 16.7 km/h 79 % 0 mm
12:42 1.6 °C -1.9 °C 1003.6 hPa North 7.9 km/h 22.2 km/h 78 % 0 mm
12:47 1.7 °C -1.9 °C 1003.9 hPa NNW 10 km/h 24.1 km/h 77 % 0 mm
12:53 1.8 °C -1.7 °C 1003.9 hPa NNE 5.5 km/h 13 km/h 78 % 0 mm
12:58 1.9 °C -1.7 °C 1004.3 hPa North 9.7 km/h 14.8 km/h 77 % 0 mm
13:18 2.1 °C -2.1 °C 1004.6 hPa NNW 5.5 km/h 11.1 km/h 74 % 0 mm
13:25 2.1 °C -2.1 °C 1004.6 hPa WNW 10 km/h 22.2 km/h 74 % 0 mm
13:33 2.2 °C -2.1 °C 1005 hPa NW 9.2 km/h 12.9 km/h 73 % 0 mm
13:39 2.3 °C -2.3 °C 1005 hPa NW 9.3 km/h 14.8 km/h 72 % 0 mm
13:46 2.3 °C -2.2 °C 1005.3 hPa NW 4.7 km/h 16.7 km/h 72 % 0 mm
13:55 2.4 °C -2.2 °C 1005.6 hPa WNW 8.7 km/h 16.7 km/h 72 % 0 mm
14:01 2.4 °C -2.2 °C 1006 hPa NNW 7.4 km/h 11.1 km/h 72 % 0 mm
14:06 2.4 °C -2.3 °C 1006 hPa NNW 11.6 km/h 16.7 km/h 71 % 0 mm
14:17 2.3 °C -2.6 °C 1006.7 hPa NNW 9.7 km/h 13 km/h 70 % 0 mm
14:25 2.2 °C -2.7 °C 1006.7 hPa NW 6.3 km/h 13 km/h 70 % 0 mm
14:31 2.1 °C -2.8 °C 1007 hPa NNW 8 km/h 14.5 km/h 70 % 0 mm
14:43 1.7 °C -3.2 °C 1007.3 hPa NW 6.6 km/h 14.8 km/h 70 % 0 mm
14:51 1.5 °C -3.4 °C 1007.3 hPa NNW 9.7 km/h 20.9 km/h 70 % 0 mm
15:03 1.3 °C -3.4 °C 1007.7 hPa NNE 8.7 km/h 9.7 km/h 71 % 0 mm
15:15 1.2 °C -3.3 °C 1008 hPa North 9.7 km/h 18.5 km/h 72 % 0 mm
15:20 1.1 °C -3.4 °C 1008 hPa WNW 11.9 km/h 18.5 km/h 72 % 0 mm
15:27 1.1 °C -3.6 °C 1008.4 hPa NNW 12.1 km/h 14.8 km/h 71 % 0 mm
15:32 1 °C -3.7 °C 1008.4 hPa NNW 6.8 km/h 16.7 km/h 71 % 0 mm
15:39 0.9 °C -3.3 °C 1008.7 hPa NNW 7.4 km/h 11.1 km/h 73 % 0 mm
15:47 0.9 °C -3.6 °C 1009 hPa NNW 8.5 km/h 19.3 km/h 72 % 0 mm
16:23 0.6 °C -3.9 °C 1010 hPa North 9.2 km/h 29.6 km/h 72 % 0 mm
16:28 0.4 °C -4.2 °C 1010 hPa NNW 12.6 km/h 22.2 km/h 71 % 0 mm
16:33 0.4 °C -4.3 °C 1010 hPa WNW 11.6 km/h 20.4 km/h 71 % 0 mm
16:38 0.3 °C -4.3 °C 1010.4 hPa North 7.9 km/h 18.5 km/h 71 % 0 mm
16:43 0.3 °C -4.4 °C 1010.4 hPa NNW 8.9 km/h 22.2 km/h 71 % 0 mm
16:48 0.2 °C -4.5 °C 1010.4 hPa North 10 km/h 13 km/h 71 % 0 mm
16:53 0.1 °C -4.6 °C 1010.7 hPa NW 7.1 km/h 13 km/h 71 % 0 mm
17:10 -0.2 °C -4.6 °C 1011.4 hPa North 10.6 km/h 24.1 km/h 72 % 0 mm
17:18 -0.3 °C -4.9 °C 1011.4 hPa North 9.3 km/h 18.5 km/h 71 % 0 mm
17:38 -0.6 °C -5.2 °C 1012.1 hPa NNW 11.6 km/h 20.9 km/h 71 % 0 mm
17:54 -0.8 °C -5.2 °C 1012.8 hPa North 11.4 km/h 22.2 km/h 72 % 0 mm
18:09 -1 °C -5.4 °C 1013.1 hPa North 10 km/h 14.8 km/h 72 % 0 mm
18:14 -1.1 °C -5.5 °C 1013.1 hPa NNW 13.4 km/h 18.5 km/h 72 % 0 mm
18:24 -1.3 °C -6.3 °C 1013.4 hPa NW 8.7 km/h 22.2 km/h 69 % 0 mm
18:30 -1.4 °C -6.2 °C 1013.8 hPa NNW 16.1 km/h 25.9 km/h 70 % 0 mm
18:35 -1.5 °C -5.9 °C 1013.8 hPa North 4.8 km/h 16.7 km/h 72 % 0 mm
18:44 -1.7 °C -6.2 °C 1013.8 hPa North 12.4 km/h 18.5 km/h 71 % 0 mm
18:53 -1.8 °C -6.4 °C 1014.1 hPa North 12.4 km/h 18.5 km/h 71 % 0 mm
18:58 -1.9 °C -6.5 °C 1014.4 hPa NNW 12.1 km/h 22.2 km/h 71 % 0 mm
19:03 -2 °C -6.6 °C 1014.4 hPa NW 12.4 km/h 24.1 km/h 71 % 0 mm
19:08 -2.1 °C -6.7 °C 1014.8 hPa NNW 13.4 km/h 16.7 km/h 71 % 0 mm
19:18 -2.2 °C -6.6 °C 1014.8 hPa NW 14 km/h 22.5 km/h 72 % 0 mm
19:23 -2.3 °C -6.7 °C 1014.8 hPa NE 13.7 km/h 24.1 km/h 72 % 0 mm
19:28 -2.3 °C -6.5 °C 1015.1 hPa North 9.5 km/h 14.8 km/h 73 % 0 mm
19:34 -2.3 °C -6.5 °C 1015.1 hPa NNE 10.6 km/h 14.8 km/h 73 % 0 mm
19:42 -2.4 °C -6.8 °C 1015.5 hPa NNW 10.9 km/h 18.5 km/h 72 % 0 mm
19:49 -2.6 °C -6.9 °C 1015.8 hPa North 11.7 km/h 20.4 km/h 72 % 0 mm
19:54 -2.7 °C -7.2 °C 1015.8 hPa NNW 12.9 km/h 19.3 km/h 71 % 0 mm
20:00 -2.8 °C -7.3 °C 1015.8 hPa NNE 10.5 km/h 18.5 km/h 71 % 0 mm
20:05 -2.8 °C -7.4 °C 1015.8 hPa North 17.4 km/h 31.5 km/h 71 % 0 mm
20:12 -3 °C -7.7 °C 1016.1 hPa WNW 9.2 km/h 35.2 km/h 70 % 0 mm
20:19 -3.1 °C -7.6 °C 1016.1 hPa NNW 12.2 km/h 22.2 km/h 71 % 0 mm
20:30 -3.3 °C -8 °C 1016.5 hPa NNW 12.2 km/h 22.5 km/h 70 % 0 mm
20:38 -3.4 °C -8.1 °C 1016.8 hPa NNW 18 km/h 29 km/h 70 % 0 mm
20:46 -3.6 °C -8.4 °C 1016.8 hPa North 12.9 km/h 32.2 km/h 69 % 0 mm
20:54 -3.7 °C -8.4 °C 1017.2 hPa NNE 9.5 km/h 16.7 km/h 70 % 0 mm
21:04 -3.9 °C -9.1 °C 1017.5 hPa NNW 10.9 km/h 20.4 km/h 67 % 0 mm
21:23 -4.3 °C -9.7 °C 1017.8 hPa North 13.5 km/h 19.3 km/h 66 % 0 mm
21:38 -4.6 °C -10.2 °C 1018.2 hPa NNW 9.8 km/h 18.5 km/h 65 % 0 mm
21:56 -4.8 °C -10 °C 1018.5 hPa NNW 12.1 km/h 16.7 km/h 67 % 0 mm
22:05 -4.9 °C -10.4 °C 1018.5 hPa NNW 10.6 km/h 22.2 km/h 65 % 0 mm
22:10 -5 °C -10.9 °C 1018.5 hPa NNW 9.7 km/h 27.8 km/h 63 % 0 mm
22:20 -5.2 °C -11.5 °C 1018.8 hPa NNW 16.6 km/h 27.8 km/h 61 % 0 mm
22:28 -5.3 °C -11.6 °C 1018.8 hPa NNW 16.1 km/h 20.4 km/h 61 % 0 mm
22:34 -5.3 °C -11.5 °C 1018.8 hPa North 9.7 km/h 13 km/h 62 % 0 mm
22:39 -5.4 °C -11.6 °C 1019.2 hPa NW 6.9 km/h 19.3 km/h 62 % 0 mm
22:44 -5.4 °C -11.4 °C 1019.5 hPa NW 8 km/h 14.8 km/h 63 % 0 mm
22:55 -5.6 °C -11.7 °C 1019.9 hPa North 12.7 km/h 18.5 km/h 62 % 0 mm
23:01 -5.7 °C -11.8 °C 1019.9 hPa NNW 4.5 km/h 11.1 km/h 62 % 0 mm
23:10 -5.8 °C -11.9 °C 1020.2 hPa WNW 11.1 km/h 16.7 km/h 62 % 0 mm
23:22 -5.9 °C -11.8 °C 1020.2 hPa NNW 10.5 km/h 18.5 km/h 63 % 0 mm
23:27 -5.9 °C -12 °C 1020.2 hPa North 10.3 km/h 18.5 km/h 62 % 0 mm
23:33 -6 °C -12.5 °C 1020.2 hPa NNE 12.7 km/h 27.4 km/h 60 % 0 mm
23:43 -6.1 °C -13.5 °C 1020.5 hPa NNE 15.4 km/h 27.8 km/h 56 % 0 mm
23:54 -6.2 °C -13.6 °C 1020.5 hPa North 10.6 km/h 22.2 km/h 56 % 0 mm
Crab Meadow Weather
Compliments of Weather Underground - 2.25 mb

Script developed by  Jim McMurry - jmcmurry@mwt.net Adapted for the template by  Wim van der Kuil - Leuven-Template.eu

Astronomy: The rings of Saturn are made of ice and rock.